Time;durP1;ratioP1;P1;durP2;ratioP2;P2;SDS_P1;SDS_P2;PMS_P1;PMS_P2;Temp;Humidity;BMP_temperature;BMP_pressure;BME280_temperature;BME280_humidity;BME280_pressure;Samples;Min_cycle;Max_cycle;Signal;HPM_P1;HPM_P2
2021/06/12 00:01:37;;;;;;;6.67;6.10;;;20.10;99.80;;;;;;6212526;22;20433;-90
2021/06/12 00:04:15;;;;;;;6.20;5.70;;;20.10;99.80;;;;;;6254458;22;20661;-90
2021/06/12 00:06:42;;;;;;;7.93;7.23;;;;;;;;;;6263066;22;20429;-89
2021/06/12 00:09:10;;;;;;;7.40;6.70;;;20.10;99.80;;;;;;6265486;22;20428;-89
2021/06/12 00:11:38;;;;;;;9.83;7.30;;;20.10;99.80;;;;;;6263869;22;20429;-90
2021/06/12 00:14:05;;;;;;;6.60;6.00;;;20.00;99.80;;;;;;6263619;22;20457;-89
2021/06/12 00:16:33;;;;;;;6.97;6.37;;;20.10;99.80;;;;;;6253364;22;20428;-90
2021/06/12 00:19:00;;;;;;;6.93;6.33;;;20.00;99.80;;;;;;6255743;22;20432;-89
2021/06/12 00:21:29;;;;;;;12.43;5.93;;;20.00;99.80;;;;;;6262132;22;20463;-89
2021/06/12 00:23:57;;;;;;;6.57;6.00;;;20.00;99.80;;;;;;6264373;22;20449;-89
2021/06/12 00:26:25;;;;;;;10.80;7.83;;;20.00;99.80;;;;;;6249502;22;20429;-89
2021/06/12 00:28:52;;;;;;;7.40;6.70;;;19.90;99.80;;;;;;6251119;22;20439;-89
2021/06/12 00:31:20;;;;;;;9.80;7.80;;;19.90;99.80;;;;;;6255747;22;20422;-89
2021/06/12 00:33:48;;;;;;;8.20;7.40;;;;;;;;;;6236862;22;20430;-89
2021/06/12 00:39:08;;;;;;;7.93;7.07;;;19.90;99.80;;;;;;6266178;22;20437;-89
2021/06/12 00:41:39;;;;;;;8.10;7.50;;;19.90;99.80;;;;;;6265596;22;20505;-89
2021/06/12 00:44:07;;;;;;;8.33;6.63;;;19.90;99.80;;;;;;6257246;22;20441;-89
2021/06/12 00:46:34;;;;;;;7.80;6.93;;;19.90;99.80;;;;;;6264006;22;20433;-89
2021/06/12 00:49:02;;;;;;;7.80;7.10;;;19.90;99.80;;;;;;6263405;22;20429;-89
2021/06/12 00:51:30;;;;;;;7.97;7.30;;;20.00;99.80;;;;;;6262131;22;20435;-89
2021/06/12 00:53:57;;;;;;;7.57;6.80;;;20.00;99.80;;;;;;6266096;22;20419;-89
2021/06/12 00:56:27;;;;;;;6.53;6.03;;;20.00;99.80;;;;;;6261187;22;20427;-90
2021/06/12 00:58:55;;;;;;;9.90;6.63;;;20.00;99.80;;;;;;6224940;22;20445;-89
2021/06/12 01:01:42;;;;;;;8.70;6.40;;;20.00;99.80;;;;;;6209354;22;20413;-90
2021/06/12 01:04:10;;;;;;;8.50;6.67;;;20.00;99.80;;;;;;6254666;22;20419;-90
2021/06/12 01:06:38;;;;;;;8.40;7.60;;;19.90;99.80;;;;;;6257066;22;20439;-89
2021/06/12 01:09:05;;;;;;;11.13;7.83;;;19.90;99.80;;;;;;6257689;22;20421;-89
2021/06/12 01:11:40;;;;;;;7.27;6.67;;;19.70;99.80;;;;;;6250930;22;20432;-89
2021/06/12 01:14:14;;;;;;;8.57;7.77;;;19.70;99.80;;;;;;6246724;22;20434;-90
2021/06/12 01:16:46;;;;;;;8.60;7.70;;;19.60;99.80;;;;;;6248902;22;20432;-88
2021/06/12 01:19:32;;;;;;;9.60;7.30;;;19.60;99.80;;;;;;6252438;22;20438;-89
2021/06/12 01:22:03;;;;;;;7.70;7.00;;;19.60;99.80;;;;;;6255645;22;20432;-90
2021/06/12 01:24:57;;;;;;;8.13;7.40;;;19.70;99.80;;;;;;6265727;22;20417;-90
2021/06/12 01:28:11;;;;;;;8.50;7.47;;;19.60;99.80;;;;;;6257507;22;20428;-90
2021/06/12 01:30:42;;;;;;;11.10;7.27;;;19.60;99.80;;;;;;6258362;22;20415;-89
2021/06/12 01:33:12;;;;;;;10.20;6.77;;;19.50;99.80;;;;;;6243677;22;20478;-89
2021/06/12 01:35:43;;;;;;;8.63;7.30;;;19.50;99.80;;;;;;6255297;22;20470;-89
2021/06/12 01:38:16;;;;;;;10.43;7.50;;;19.50;99.80;;;;;;6257029;22;20547;-88
2021/06/12 01:40:46;;;;;;;8.20;7.27;;;19.50;99.80;;;;;;6251513;22;20468;-88
2021/06/12 01:43:16;;;;;;;8.70;7.60;;;19.40;99.80;;;;;;6229342;22;20431;-90
2021/06/12 01:45:47;;;;;;;8.00;7.30;;;19.30;99.80;;;;;;6218119;23;20431;-91
2021/06/12 01:48:16;;;;;;;9.13;8.23;;;19.20;99.80;;;;;;6205676;23;20486;-91
2021/06/12 01:50:44;;;;;;;9.33;8.53;;;19.20;99.80;;;;;;6229165;23;20938;-90
2021/06/12 01:53:16;;;;;;;9.37;8.57;;;19.10;99.80;;;;;;6235127;22;21189;-90
2021/06/12 01:55:47;;;;;;;9.17;8.37;;;19.10;99.80;;;;;;6230716;23;20443;-90
2021/06/12 01:58:18;;;;;;;10.17;8.20;;;19.00;99.80;;;;;;6234691;23;20470;-90
2021/06/12 02:00:48;;;;;;;9.30;8.50;;;19.00;99.80;;;;;;6180116;23;20941;-90
2021/06/12 02:03:17;;;;;;;12.40;8.47;;;18.90;99.80;;;;;;6240593;22;20950;-90
2021/06/12 02:05:46;;;;;;;10.10;8.30;;;18.90;99.80;;;;;;6241338;23;20725;-90
2021/06/12 02:08:15;;;;;;;8.97;8.17;;;18.80;99.80;;;;;;6241142;23;20452;-90
2021/06/12 02:10:45;;;;;;;9.30;8.43;;;18.80;99.80;;;;;;6241260;23;20901;-90
2021/06/12 02:13:13;;;;;;;9.53;8.53;;;18.80;99.80;;;;;;6240916;22;20806;-88
2021/06/12 02:15:41;;;;;;;8.70;7.90;;;18.80;99.80;;;;;;6241157;23;20391;-88
2021/06/12 02:18:11;;;;;;;9.47;8.57;;;18.80;99.80;;;;;;6195648;23;20429;-90
2021/06/12 02:20:40;;;;;;;8.97;8.00;;;18.80;99.80;;;;;;6157795;23;20427;-89
2021/06/12 02:23:09;;;;;;;10.50;7.90;;;18.70;99.80;;;;;;6201224;23;20447;-90
2021/06/12 02:25:36;;;;;;;9.67;8.87;;;18.70;99.80;;;;;;6221291;23;20450;-90
2021/06/12 02:28:07;;;;;;;9.90;9.00;;;18.70;99.80;;;;;;6226555;23;20437;-90
2021/06/12 02:30:42;;;;;;;9.40;8.37;;;18.60;99.80;;;;;;6221268;23;20513;-90
2021/06/12 02:33:14;;;;;;;9.10;8.30;;;18.60;99.80;;;;;;6224738;22;20435;-89
2021/06/12 02:35:42;;;;;;;9.40;8.60;;;18.70;99.80;;;;;;6226379;23;20435;-90
2021/06/12 02:38:10;;;;;;;8.63;7.93;;;18.70;99.80;;;;;;6225125;23;20959;-88
2021/06/12 02:40:38;;;;;;;9.93;8.90;;;18.70;99.80;;;;;;6224483;23;20545;-90
2021/06/12 02:43:05;;;;;;;10.50;8.60;;;18.60;99.80;;;;;;6219512;22;20450;-90
2021/06/12 02:45:33;;;;;;;12.10;9.03;;;18.60;99.80;;;;;;6229250;23;20443;-90
2021/06/12 02:48:04;;;;;;;10.67;8.47;;;18.60;99.80;;;;;;6226863;23;20426;-90
2021/06/12 02:50:35;;;;;;;13.23;9.07;;;18.50;99.80;;;;;;6214777;23;20441;-90
2021/06/12 02:53:05;;;;;;;9.23;7.90;;;18.40;99.80;;;;;;6234978;22;20439;-89
2021/06/12 02:55:36;;;;;;;10.57;9.67;;;18.40;99.80;;;;;;6233375;23;20439;-90
2021/06/12 02:58:04;;;;;;;11.13;10.10;;;18.30;99.80;;;;;;6235789;23;20431;-89
2021/06/12 03:00:35;;;;;;;11.60;9.97;;;18.30;99.80;;;;;;6181074;23;20432;-88
2021/06/12 03:03:04;;;;;;;10.50;8.90;;;18.30;99.80;;;;;;6208095;22;20439;-89
2021/06/12 03:05:36;;;;;;;13.47;10.20;;;18.20;99.80;;;;;;6228846;23;20494;-89
2021/06/12 03:08:06;;;;;;;9.50;8.70;;;18.20;99.80;;;;;;6235178;23;20446;-90
2021/06/12 03:10:35;;;;;;;10.00;9.00;;;18.20;99.80;;;;;;6223815;23;20924;-90
2021/06/12 03:13:06;;;;;;;13.17;8.87;;;18.20;99.80;;;;;;6226760;22;20450;-90
2021/06/12 03:15:35;;;;;;;10.50;9.50;;;18.20;99.80;;;;;;6216973;23;20435;-89
2021/06/12 03:18:03;;;;;;;11.60;9.50;;;18.20;99.80;;;;;;6223952;23;20435;-89
2021/06/12 03:20:34;;;;;;;14.33;9.30;;;18.10;99.80;;;;;;6226707;23;20427;-89
2021/06/12 03:23:03;;;;;;;10.73;9.60;;;18.10;99.80;;;;;;6230294;22;21262;-90
2021/06/12 03:25:32;;;;;;;10.30;9.27;;;18.10;99.80;;;;;;6233960;23;20441;-89
2021/06/12 03:28:00;;;;;;;11.10;9.50;;;18.10;99.80;;;;;;6233184;23;20442;-89
2021/06/12 03:30:30;;;;;;;11.60;10.43;;;18.10;99.80;;;;;;6222223;23;20485;-90
2021/06/12 03:32:59;;;;;;;10.53;9.43;;;18.00;99.80;;;;;;6225362;22;20443;-89
2021/06/12 03:35:27;;;;;;;10.90;9.50;;;18.00;99.80;;;;;;6221628;23;20435;-89
2021/06/12 03:37:57;;;;;;;10.50;9.53;;;18.00;99.80;;;;;;6233924;23;20514;-90
2021/06/12 03:40:25;;;;;;;10.97;9.97;;;18.00;99.80;;;;;;6226328;23;20451;-89
2021/06/12 03:42:55;;;;;;;11.23;10.03;;;18.00;99.80;;;;;;6214579;22;20530;-89
2021/06/12 03:45:24;;;;;;;11.77;10.17;;;18.10;99.80;;;;;;6230074;23;20435;-90
2021/06/12 03:47:53;;;;;;;10.90;9.80;;;18.10;99.80;;;;;;6231329;23;20465;-89
2021/06/12 03:50:22;;;;;;;9.90;9.00;;;18.10;99.80;;;;;;6219142;23;20447;-90
2021/06/12 03:52:50;;;;;;;9.80;8.80;;;18.10;99.80;;;;;;6228204;22;20826;-89
2021/06/12 03:55:20;;;;;;;14.70;11.10;;;18.10;99.80;;;;;;6229908;23;20437;-88
2021/06/12 03:57:48;;;;;;;11.20;10.10;;;18.20;99.80;;;;;;6223846;23;20431;-89
2021/06/12 04:00:18;;;;;;;11.70;10.50;;;18.20;99.80;;;;;;6177545;23;20827;-88
2021/06/12 04:02:49;;;;;;;14.47;12.97;;;18.20;99.80;;;;;;6196715;22;20506;-89
2021/06/12 04:05:17;;;;;;;13.40;12.00;;;18.30;99.80;;;;;;6205333;23;20431;-89
2021/06/12 04:07:44;;;;;;;11.80;10.60;;;18.40;99.80;;;;;;6247487;23;20438;-89
2021/06/12 04:10:13;;;;;;;12.83;11.20;;;18.40;99.80;;;;;;6251806;23;20466;-87
2021/06/12 04:12:41;;;;;;;14.03;11.10;;;18.40;99.80;;;;;;6239021;22;20495;-87
2021/06/12 04:15:10;;;;;;;10.77;9.87;;;18.40;99.80;;;;;;6243507;23;20498;-89
2021/06/12 04:17:39;;;;;;;10.70;9.67;;;18.50;99.80;;;;;;6231608;23;20459;-89
2021/06/12 04:20:07;;;;;;;10.77;9.77;;;18.50;99.80;;;;;;6231912;23;20459;-87
2021/06/12 04:22:35;;;;;;;10.23;9.07;;;18.50;99.80;;;;;;6248655;22;20458;-88
2021/06/12 04:25:03;;;;;;;11.10;9.90;;;18.50;99.80;;;;;;6201142;23;20456;-88
2021/06/12 04:27:31;;;;;;;10.67;9.53;;;18.50;99.80;;;;;;6234182;23;20447;-87
2021/06/12 04:30:01;;;;;;;13.87;10.70;;;18.40;99.80;;;;;;6244045;23;20435;-88
2021/06/12 04:32:28;;;;;;;12.03;10.10;;;;;;;;;;6213188;22;20500;-87
2021/06/12 04:34:56;;;;;;;12.23;11.07;;;18.40;99.80;;;;;;6214408;23;20452;-87
2021/06/12 04:37:23;;;;;;;12.40;11.20;;;18.40;99.80;;;;;;6238272;23;20495;-88
2021/06/12 04:39:51;;;;;;;11.60;10.57;;;18.40;99.80;;;;;;6259318;23;20477;-89
2021/06/12 04:42:18;;;;;;;13.37;10.07;;;18.40;99.80;;;;;;6256402;22;20450;-89
2021/06/12 04:44:46;;;;;;;11.87;10.87;;;18.40;99.80;;;;;;6189079;23;20440;-87
2021/06/12 04:47:15;;;;;;;10.73;9.20;;;18.40;99.80;;;;;;6205180;22;20435;-89
2021/06/12 04:49:43;;;;;;;11.87;10.57;;;;;;;;;;6172069;23;20496;-89
2021/06/12 04:52:10;;;;;;;11.40;10.17;;;18.50;99.80;;;;;;6245147;22;20491;-90
2021/06/12 04:54:38;;;;;;;15.27;11.00;;;18.50;99.80;;;;;;6221044;23;20448;-88
2021/06/12 04:57:06;;;;;;;13.90;11.27;;;18.50;99.80;;;;;;6213440;22;20731;-90
2021/06/12 04:59:34;;;;;;;12.23;11.00;;;18.50;99.80;;;;;;6191314;23;20507;-89
2021/06/12 05:02:02;;;;;;;10.70;9.53;;;18.50;99.80;;;;;;6221070;22;20483;-87
2021/06/12 05:04:31;;;;;;;10.90;9.90;;;18.60;99.80;;;;;;6242932;23;20431;-88
2021/06/12 05:06:58;;;;;;;11.40;10.13;;;;;;;;;;6244624;23;20507;-89
2021/06/12 05:09:26;;;;;;;12.00;10.80;;;18.70;99.80;;;;;;6251328;23;20431;-88
2021/06/12 05:11:54;;;;;;;11.03;10.07;;;18.70;99.80;;;;;;6257070;22;20450;-89
2021/06/12 05:14:22;;;;;;;10.90;9.90;;;;;;;;;;6248753;23;20463;-88
2021/06/12 05:16:49;;;;;;;11.50;10.30;;;;;;;;;;6246777;23;20825;-90
2021/06/12 05:19:17;;;;;;;11.70;10.37;;;19.00;99.80;;;;;;6250077;23;20419;-88
2021/06/12 05:21:48;;;;;;;12.70;9.73;;;19.00;99.80;;;;;;6246135;22;20499;-89
2021/06/12 05:24:16;;;;;;;11.73;10.63;;;19.20;99.80;;;;;;6256195;23;20435;-89
2021/06/12 05:26:43;;;;;;;11.20;10.10;;;19.30;99.80;;;;;;6241456;23;20503;-90
2021/06/12 05:29:11;;;;;;;12.53;10.67;;;19.50;99.80;;;;;;6243089;23;20466;-88
2021/06/12 05:31:38;;;;;;;10.57;9.53;;;19.70;99.80;;;;;;6244110;23;20439;-89
2021/06/12 05:34:06;;;;;;;10.57;8.90;;;19.80;99.80;;;;;;6245628;23;20432;-89
2021/06/12 05:36:33;;;;;;;9.90;8.60;;;19.90;99.80;;;;;;6247280;23;20441;-90
2021/06/12 05:39:04;;;;;;;10.10;9.10;;;20.00;99.80;;;;;;6242872;23;20435;-90
2021/06/12 05:41:32;;;;;;;10.43;8.53;;;20.00;99.80;;;;;;6245010;22;20459;-87
2021/06/12 05:44:00;;;;;;;12.67;9.60;;;20.00;99.80;;;;;;6198106;23;20442;-87
2021/06/12 05:46:28;;;;;;;10.23;8.80;;;;;;;;;;6244024;23;20424;-90
2021/06/12 05:48:55;;;;;;;10.37;8.60;;;20.20;99.80;;;;;;6204868;23;20437;-89
2021/06/12 05:51:23;;;;;;;8.97;7.53;;;20.40;99.80;;;;;;6237428;22;20424;-90
2021/06/12 05:53:50;;;;;;;8.93;7.80;;;20.50;99.80;;;;;;6254221;23;20517;-89
2021/06/12 05:56:20;;;;;;;8.93;7.97;;;20.60;99.80;;;;;;6241780;23;20775;-88
2021/06/12 05:58:47;;;;;;;9.13;8.23;;;20.60;99.80;;;;;;6236007;23;20443;-87
2021/06/12 06:01:15;;;;;;;11.10;9.37;;;20.60;99.80;;;;;;6194935;23;20453;-90
2021/06/12 06:03:43;;;;;;;11.13;8.83;;;20.60;99.80;;;;;;6226323;22;20431;-89
2021/06/12 06:06:10;;;;;;;10.57;9.00;;;20.60;99.80;;;;;;6240329;23;20508;-89
2021/06/12 06:08:38;;;;;;;9.40;7.90;;;20.70;99.80;;;;;;6238410;23;20435;-90
2021/06/12 06:11:06;;;;;;;7.43;6.73;;;20.80;99.80;;;;;;6239476;22;20445;-91
2021/06/12 06:13:39;;;;;;;8.10;7.40;;;20.90;99.80;;;;;;6240308;23;20427;-91
2021/06/12 06:16:07;;;;;;;6.57;6.03;;;21.00;99.80;;;;;;6240560;23;20776;-90
2021/06/12 06:18:36;;;;;;;9.10;7.13;;;21.10;99.80;;;;;;6240417;23;20445;-89
2021/06/12 06:21:04;;;;;;;8.40;7.60;;;21.20;99.80;;;;;;6239761;22;20433;-90
2021/06/12 06:23:32;;;;;;;7.93;6.37;;;21.20;99.80;;;;;;6240618;23;20433;-89
2021/06/12 06:26:00;;;;;;;8.27;6.63;;;21.20;99.80;;;;;;6237516;23;20454;-88
2021/06/12 06:28:28;;;;;;;7.73;6.90;;;21.40;99.80;;;;;;6207064;23;20522;-88
2021/06/12 06:30:57;;;;;;;10.93;6.73;;;21.50;99.80;;;;;;6207662;23;20428;-89
2021/06/12 06:33:25;;;;;;;8.80;7.27;;;21.60;99.80;;;;;;6206355;23;20432;-90
2021/06/12 06:35:54;;;;;;;9.83;6.70;;;21.60;99.80;;;;;;6208158;23;20482;-89
2021/06/12 06:38:21;;;;;;;8.90;7.10;;;21.60;99.80;;;;;;6207953;23;21112;-87
2021/06/12 06:40:49;;;;;;;7.70;6.90;;;21.70;99.80;;;;;;6207317;23;20439;-91
2021/06/12 06:43:18;;;;;;;7.77;6.97;;;21.80;99.80;;;;;;6208500;23;20444;-89
2021/06/12 06:45:46;;;;;;;9.70;6.30;;;21.90;99.80;;;;;;6208200;23;20432;-90
2021/06/12 06:48:21;;;;;;;8.60;7.60;;;21.90;99.80;;;;;;6208176;23;20479;-90
2021/06/12 06:50:49;;;;;;;11.60;8.00;;;22.00;99.80;;;;;;6206926;23;20762;-90
2021/06/12 06:53:17;;;;;;;7.90;7.13;;;22.10;99.80;;;;;;6208603;23;20448;-89
2021/06/12 06:55:44;;;;;;;12.30;7.17;;;22.10;99.80;;;;;;6207128;23;20440;-90
2021/06/12 06:58:12;;;;;;;8.53;7.63;;;22.30;99.80;;;;;;6207751;23;21008;-89
2021/06/12 07:00:40;;;;;;;7.80;7.00;;;22.40;99.80;;;;;;6207764;23;20946;-89
2021/06/12 07:03:08;;;;;;;8.93;6.93;;;22.50;99.80;;;;;;6207839;23;20448;-88
2021/06/12 07:05:37;;;;;;;10.30;7.13;;;22.60;99.80;;;;;;6208225;23;20475;-89
2021/06/12 07:08:06;;;;;;;9.37;6.17;;;22.60;99.80;;;;;;6208235;23;20443;-89
2021/06/12 07:10:33;;;;;;;8.40;6.20;;;22.70;99.80;;;;;;6208237;23;20432;-89
2021/06/12 07:13:02;;;;;;;8.07;7.27;;;22.80;99.80;;;;;;6208112;23;20508;-89
2021/06/12 07:15:30;;;;;;;6.33;5.50;;;22.90;99.80;;;;;;6208389;23;20436;-89
2021/06/12 07:17:58;;;;;;;7.33;5.80;;;23.00;99.80;;;;;;6200986;23;20511;-89
2021/06/12 07:20:26;;;;;;;8.57;6.30;;;23.10;99.80;;;;;;6208971;23;20496;-89
2021/06/12 07:22:55;;;;;;;8.27;6.67;;;23.10;99.80;;;;;;6209686;23;20432;-90
2021/06/12 07:25:24;;;;;;;11.37;7.37;;;23.10;99.80;;;;;;6209344;23;20489;-91
2021/06/12 07:27:51;;;;;;;7.00;6.30;;;23.10;99.80;;;;;;6209736;23;20438;-89
2021/06/12 07:30:19;;;;;;;8.77;6.77;;;23.20;99.30;;;;;;6209215;23;20435;-88
2021/06/12 07:32:47;;;;;;;9.40;6.97;;;23.20;99.00;;;;;;6209012;23;20444;-90
2021/06/12 07:35:14;;;;;;;8.17;6.77;;;23.20;99.50;;;;;;6209316;23;20440;-89
2021/06/12 07:37:42;;;;;;;15.27;9.30;;;23.30;97.70;;;;;;6209876;23;20442;-89
2021/06/12 07:40:12;;;;;;;13.17;8.30;;;23.30;97.70;;;;;;6211264;23;20446;-91
2021/06/12 07:42:39;;;;;;;10.70;8.10;;;23.40;98.20;;;;;;6210539;23;20967;-90
2021/06/12 07:45:08;;;;;;;9.90;7.50;;;23.40;99.10;;;;;;6210982;23;20894;-90
2021/06/12 07:47:36;;;;;;;12.00;7.60;;;23.60;98.30;;;;;;6209024;23;20447;-89
2021/06/12 07:50:04;;;;;;;10.57;8.57;;;23.60;98.30;;;;;;6210046;23;20432;-91
2021/06/12 07:52:32;;;;;;;13.33;8.73;;;23.70;97.90;;;;;;6209694;23;20486;-90
2021/06/12 07:54:59;;;;;;;14.53;9.90;;;23.70;97.00;;;;;;6211506;23;20811;-91
2021/06/12 07:57:28;;;;;;;14.80;9.90;;;23.90;97.20;;;;;;6212326;23;20431;-91
2021/06/12 07:59:56;;;;;;;15.00;9.00;;;24.00;97.10;;;;;;6212556;23;20515;-90
2021/06/12 08:02:24;;;;;;;17.63;9.93;;;24.10;96.90;;;;;;6209954;23;20438;-90
2021/06/12 08:04:52;;;;;;;12.23;8.47;;;24.10;98.00;;;;;;6211224;23;20432;-91
2021/06/12 08:07:20;;;;;;;12.07;9.40;;;24.20;97.20;;;;;;6211106;23;20439;-89
2021/06/12 08:09:49;;;;;;;14.47;9.60;;;24.30;96.60;;;;;;6210461;23;20451;-90
2021/06/12 08:12:17;;;;;;;11.27;9.00;;;24.60;96.30;;;;;;6210952;23;20523;-90
2021/06/12 08:14:48;;;;;;;13.10;9.20;;;24.70;95.30;;;;;;6211111;23;20460;-91
2021/06/12 08:17:16;;;;;;;14.63;9.80;;;24.80;94.40;;;;;;6211085;23;20440;-90
2021/06/12 08:19:44;;;;;;;13.47;9.50;;;24.90;94.70;;;;;;6211114;23;20486;-91
2021/06/12 08:22:13;;;;;;;17.27;10.83;;;24.90;94.10;;;;;;6209498;23;20470;-90
2021/06/12 08:24:41;;;;;;;19.20;11.90;;;24.60;94.50;;;;;;6210604;23;20446;-89
2021/06/12 08:27:08;;;;;;;15.40;10.67;;;24.40;96.20;;;;;;6211445;23;20440;-90
2021/06/12 08:29:36;;;;;;;11.23;8.90;;;24.30;96.60;;;;;;6211153;23;20526;-90
2021/06/12 08:32:07;;;;;;;17.63;9.07;;;24.40;96.40;;;;;;6210611;23;20433;-90
2021/06/12 08:34:34;;;;;;;13.57;8.60;;;24.50;96.00;;;;;;6211129;23;20941;-90
2021/06/12 08:37:03;;;;;;;14.00;9.63;;;24.70;96.60;;;;;;6210919;23;20436;-90
2021/06/12 08:39:31;;;;;;;14.00;9.33;;;24.60;95.30;;;;;;6212107;23;20483;-90
2021/06/12 08:41:59;;;;;;;11.50;8.90;;;24.60;95.50;;;;;;6241352;22;20919;-90
2021/06/12 08:44:28;;;;;;;15.80;10.00;;;24.70;94.70;;;;;;6241238;22;20437;-89
2021/06/12 08:46:56;;;;;;;15.23;8.57;;;24.70;95.10;;;;;;6240963;22;20427;-90
2021/06/12 08:49:25;;;;;;;12.47;9.60;;;24.70;95.10;;;;;;6240652;22;21042;-90
2021/06/12 08:51:54;;;;;;;17.40;9.17;;;25.00;96.30;;;;;;6238229;22;20439;-91
2021/06/12 08:54:24;;;;;;;14.70;10.90;;;25.20;93.60;;;;;;6230650;22;20435;-90
2021/06/12 08:56:52;;;;;;;15.70;10.43;;;25.20;93.60;;;;;;6239762;22;20430;-91
2021/06/12 08:59:20;;;;;;;12.57;10.17;;;25.40;92.20;;;;;;6235000;22;20435;-90
2021/06/12 09:01:48;;;;;;;18.93;10.40;;;25.60;90.50;;;;;;6222693;22;20447;-91
2021/06/12 09:04:31;;;;;;;15.00;8.67;;;25.80;92.10;;;;;;6194472;22;21001;-90
2021/06/12 09:07:25;;;;;;;13.97;10.53;;;26.10;90.10;;;;;;6231902;22;20453;-90
2021/06/12 09:09:54;;;;;;;11.93;9.37;;;26.00;89.50;;;;;;6186787;23;21155;-91
2021/06/12 09:12:22;;;;;;;12.60;9.50;;;25.90;90.30;;;;;;6156665;23;20441;-90
2021/06/12 09:15:10;;;;;;;8.57;7.00;;;25.80;91.70;;;;;;6163692;23;20467;-91
2021/06/12 09:17:42;;;;;;;16.20;7.70;;;25.90;92.90;;;;;;6155724;23;20516;-90
2021/06/12 09:20:16;;;;;;;13.63;7.77;;;25.90;92.80;;;;;;6161720;22;20440;-90
2021/06/12 09:22:44;;;;;;;5.10;4.60;;;26.30;88.40;;;;;;6161867;23;20467;-91
2021/06/12 09:25:16;;;;;;;5.67;5.10;;;26.40;86.60;;;;;;6165068;23;20437;-89
2021/06/12 09:27:56;;;;;;;6.73;5.90;;;26.40;86.00;;;;;;6176221;23;20455;-90
2021/06/12 09:30:30;;;;;;;6.40;5.80;;;26.20;84.40;;;;;;6189977;23;20449;-90
2021/06/12 09:32:58;;;;;;;6.23;5.07;;;26.20;84.90;;;;;;6186807;23;20429;-90
2021/06/12 09:35:35;;;;;;;5.50;4.80;;;26.20;85.20;;;;;;6197528;23;20815;-90
2021/06/12 09:38:22;;;;;;;6.63;5.93;;;26.20;85.80;;;;;;6218400;23;20947;-90
2021/06/12 09:40:49;;;;;;;6.93;4.70;;;26.30;86.00;;;;;;6203165;23;20428;-90
2021/06/12 09:43:27;;;;;;;5.67;5.17;;;26.20;85.00;;;;;;6156836;23;20946;-89
2021/06/12 09:45:55;;;;;;;7.50;5.30;;;26.00;86.40;;;;;;6167889;23;20835;-91
2021/06/12 09:48:23;;;;;;;5.80;5.33;;;25.90;86.20;;;;;;6173541;23;20454;-89
2021/06/12 09:51:10;;;;;;;5.70;5.20;;;25.70;85.30;;;;;;6192594;22;20920;-89
2021/06/12 09:53:48;;;;;;;5.77;5.27;;;25.60;85.70;;;;;;6205908;22;20435;-90
2021/06/12 09:56:16;;;;;;;4.97;4.50;;;25.90;86.90;;;;;;6203547;22;21283;-90
2021/06/12 09:58:44;;;;;;;5.60;5.10;;;26.20;86.30;;;;;;6205978;22;20761;-88
2021/06/12 10:01:13;;;;;;;4.70;4.30;;;26.60;83.40;;;;;;6186469;22;20533;-88
2021/06/12 10:03:41;;;;;;;3.87;3.57;;;26.70;83.30;;;;;;6204372;22;20968;-88
2021/06/12 10:06:12;;;;;;;4.43;4.13;;;26.80;84.50;;;;;;6207866;22;20438;-88
2021/06/12 10:08:41;;;;;;;6.33;4.57;;;26.60;82.20;;;;;;6204290;23;20424;-88
2021/06/12 10:11:09;;;;;;;5.70;4.80;;;26.50;84.30;;;;;;6205053;23;20450;-88
2021/06/12 10:13:37;;;;;;;7.23;4.73;;;26.60;82.10;;;;;;6202116;23;20436;-89
2021/06/12 10:16:05;;;;;;;4.80;4.20;;;26.60;82.20;;;;;;6176659;23;20984;-88
2021/06/12 10:18:34;;;;;;;5.03;4.53;;;26.20;82.40;;;;;;6174802;23;20483;-88
2021/06/12 10:21:03;;;;;;;3.97;3.47;;;26.40;82.80;;;;;;6174678;23;20443;-88
2021/06/12 10:23:33;;;;;;;3.70;3.40;;;26.60;81.50;;;;;;6201474;23;20466;-89
2021/06/12 10:26:01;;;;;;;3.63;3.33;;;26.80;81.20;;;;;;6201628;22;20883;-90
2021/06/12 10:28:29;;;;;;;5.70;3.93;;;27.00;83.70;;;;;;6180099;22;21003;-89
2021/06/12 10:30:57;;;;;;;7.37;4.00;;;27.40;82.90;;;;;;6189136;22;20442;-88
2021/06/12 10:33:25;;;;;;;4.97;3.73;;;27.60;82.20;;;;;;6194078;22;20470;-88
2021/06/12 10:36:08;;;;;;;3.50;3.20;;;27.60;80.80;;;;;;6191063;22;20975;-90
2021/06/12 10:38:38;;;;;;;4.63;4.23;;;27.30;81.70;;;;;;6213237;22;20431;-90
2021/06/12 10:41:21;;;;;;;3.27;2.87;;;27.00;80.70;;;;;;6207199;23;20471;-89
2021/06/12 10:43:51;;;;;;;3.93;2.90;;;27.10;80.80;;;;;;6207496;22;22544;-88
2021/06/12 10:46:21;;;;;;;3.20;2.90;;;27.10;80.30;;;;;;6193545;22;20450;-88
2021/06/12 10:48:59;;;;;;;3.13;2.83;;;27.40;80.10;;;;;;6187753;22;21028;-87
2021/06/12 10:51:47;;;;;;;5.20;2.27;;;27.70;79.50;;;;;;6194666;22;20436;-88
2021/06/12 10:54:23;;;;;;;3.10;2.90;;;27.90;77.90;;;;;;6208505;22;20444;-89
2021/06/12 10:56:53;;;;;;;2.00;1.90;;;27.90;76.50;;;;;;6195687;22;20486;-89
2021/06/12 10:59:42;;;;;;;2.20;2.10;;;27.80;76.10;;;;;;6207491;22;20521;-89
2021/06/12 11:02:13;;;;;;;2.30;2.10;;;27.80;77.10;;;;;;6193708;22;20432;-89
2021/06/12 11:04:48;;;;;;;3.43;1.77;;;27.80;77.80;;;;;;6184517;22;20486;-88
2021/06/12 11:07:33;;;;;;;2.50;2.30;;;27.70;78.20;;;;;;6190447;22;20526;-87
2021/06/12 11:10:24;;;;;;;2.00;1.87;;;27.60;77.70;;;;;;6184310;22;20431;-88
2021/06/12 11:12:54;;;;;;;4.00;1.93;;;27.70;78.30;;;;;;6185186;23;20441;-87
2021/06/12 11:15:28;;;;;;;2.43;2.20;;;27.70;76.60;;;;;;6207460;23;20426;-86
2021/06/12 11:18:17;;;;;;;2.80;2.60;;;28.00;76.20;;;;;;6177044;23;20436;-87
2021/06/12 11:20:47;;;;;;;1.80;1.70;;;28.00;76.20;;;;;;6178779;23;20498;-87
2021/06/12 11:23:19;;;;;;;1.90;1.77;;;28.00;77.30;;;;;;6205643;23;20424;-88
2021/06/12 11:25:57;;;;;;;2.87;2.30;;;28.00;77.30;;;;;;6206324;23;20432;-87
2021/06/12 11:28:36;;;;;;;2.17;1.70;;;27.90;75.00;;;;;;6175071;23;20435;-87
2021/06/12 11:31:24;;;;;;;2.60;2.40;;;27.10;77.90;;;;;;6185510;23;20431;-87
2021/06/12 11:34:11;;;;;;;2.63;2.43;;;27.10;77.70;;;;;;6196330;22;20457;-87
2021/06/12 11:36:39;;;;;;;2.80;2.60;;;27.20;77.10;;;;;;6215453;22;20934;-87
2021/06/12 11:39:06;;;;;;;4.60;2.33;;;27.20;77.10;;;;;;6196961;22;20446;-88
2021/06/12 11:41:35;;;;;;;1.80;1.70;;;27.60;74.20;;;;;;6166440;22;20839;-88
2021/06/12 11:44:03;;;;;;;7.00;2.40;;;27.60;74.50;;;;;;6173927;22;20446;-87
2021/06/12 11:46:34;;;;;;;2.13;1.87;;;27.50;74.80;;;;;;6186116;22;20437;-87
2021/06/12 11:49:05;;;;;;;2.10;1.90;;;27.50;74.70;;;;;;6198117;22;21093;-87
2021/06/12 11:51:41;;;;;;;2.13;2.03;;;27.50;75.00;;;;;;6204131;22;20442;-88
2021/06/12 11:54:13;;;;;;;2.30;2.10;;;27.70;73.80;;;;;;6206726;22;20436;-87
2021/06/12 11:56:44;;;;;;;1.80;1.67;;;27.50;75.00;;;;;;6203969;22;20446;-87
2021/06/12 11:59:13;;;;;;;3.20;2.13;;;27.50;75.00;;;;;;6198690;22;20854;-87
2021/06/12 12:01:45;;;;;;;2.40;1.97;;;28.20;72.50;;;;;;6205341;22;20445;-87
2021/06/12 12:04:15;;;;;;;2.10;1.90;;;28.20;72.40;;;;;;6207721;22;20496;-88
2021/06/12 12:06:47;;;;;;;4.93;2.03;;;;;;;;;;6218312;22;20439;-88
2021/06/12 12:09:23;;;;;;;1.83;1.73;;;;;;;;;;6189731;22;20769;-88
2021/06/12 12:11:53;;;;;;;2.17;2.07;;;;;;;;;;6180167;22;20435;-88
2021/06/12 12:14:27;;;;;;;2.00;1.80;;;;;;;;;;6182245;22;20502;-88
2021/06/12 12:16:55;;;;;;;2.20;2.00;;;;;;;;;;6203988;22;20433;-86
2021/06/12 12:19:24;;;;;;;2.60;2.10;;;;;;;;;;6158230;23;20444;-87
2021/06/12 12:21:53;;;;;;;2.33;2.13;;;;;;;;;;6186418;23;20479;-85
2021/06/12 12:24:21;;;;;;;2.93;2.60;;;25.90;77.40;;;;;;6193256;23;20432;-88
2021/06/12 12:26:59;;;;;;;2.40;2.20;;;25.90;77.40;;;;;;6205909;23;20446;-87
2021/06/12 12:29:29;;;;;;;2.63;2.43;;;25.50;78.70;;;;;;6201950;23;20436;-87
2021/06/12 12:32:00;;;;;;;4.17;2.90;;;25.50;78.70;;;;;;6181692;23;20446;-87
2021/06/12 12:34:36;;;;;;;3.57;3.20;;;25.50;79.50;;;;;;6167280;23;20980;-86
2021/06/12 12:37:06;;;;;;;3.87;3.13;;;25.50;79.00;;;;;;6205223;23;20522;-86
2021/06/12 12:39:39;;;;;;;3.47;3.17;;;25.70;79.90;;;;;;6201647;23;20751;-86
2021/06/12 12:42:09;;;;;;;2.73;2.50;;;26.10;80.40;;;;;;6182232;23;20440;-87
2021/06/12 12:44:42;;;;;;;3.33;3.03;;;26.50;79.50;;;;;;6155880;23;20439;-86
2021/06/12 12:47:10;;;;;;;4.90;2.90;;;26.50;79.20;;;;;;6165401;23;20450;-86
2021/06/12 12:49:41;;;;;;;3.37;3.17;;;26.50;79.20;;;;;;6165907;23;20956;-89
2021/06/12 12:52:18;;;;;;;3.60;3.30;;;25.90;80.70;;;;;;6155057;23;20436;-85
2021/06/12 12:54:58;;;;;;;4.13;3.83;;;25.60;82.00;;;;;;6169937;23;20437;-87
2021/06/12 12:57:39;;;;;;;3.30;3.00;;;25.20;82.40;;;;;;6169420;23;20432;-86
2021/06/12 13:00:15;;;;;;;4.70;3.63;;;25.20;82.40;;;;;;6194910;23;20447;-84
2021/06/12 13:02:42;;;;;;;4.10;3.70;;;24.90;83.50;;;;;;6209312;23;20450;-85
2021/06/12 13:05:14;;;;;;;4.40;4.10;;;24.50;85.00;;;;;;6194880;23;20770;-85